Time;durP1;ratioP1;P1;durP2;ratioP2;P2;SDS_P1;SDS_P2;PMS_P1;PMS_P2;Temp;Humidity;BMP_temperature;BMP_pressure;BME280_temperature;BME280_humidity;BME280_pressure;Samples;Min_cycle;Max_cycle;Signal;HPM_P1;HPM_P2
2023/08/08 00:01:02;;;;;;;1999.90;999.90;;;13.80;99.90;;;;;;5057245;28;20083;-79
2023/08/08 00:03:28;;;;;;;1999.90;999.90;;;13.80;99.90;;;;;;5055864;28;20044;-80
2023/08/08 00:05:53;;;;;;;1999.90;999.90;;;13.80;99.90;;;;;;5074063;28;20090;-81
2023/08/08 00:08:19;;;;;;;1999.90;999.90;;;13.80;99.90;;;;;;5056392;28;20097;-81
2023/08/08 00:10:45;;;;;;;1999.90;999.90;;;13.80;99.90;;;;;;5056400;28;20054;-80
2023/08/08 00:13:10;;;;;;;1999.90;999.90;;;13.90;99.90;;;;;;5056215;28;20472;-75
2023/08/08 00:15:36;;;;;;;1999.90;999.90;;;13.90;99.90;;;;;;5073602;28;20128;-78
2023/08/08 00:18:02;;;;;;;1999.90;999.90;;;13.90;99.90;;;;;;5073944;28;20044;-78
2023/08/08 00:20:28;;;;;;;1999.90;999.90;;;13.80;99.90;;;;;;5039583;28;20067;-83
2023/08/08 00:22:53;;;;;;;1999.90;999.90;;;13.90;99.90;;;;;;5073662;28;20102;-79
2023/08/08 00:25:19;;;;;;;1999.90;999.90;;;13.80;99.90;;;;;;5073874;28;20048;-79
2023/08/08 00:27:45;;;;;;;1999.90;999.90;;;13.90;99.90;;;;;;5056319;28;20057;-79
2023/08/08 00:30:13;;;;;;;1999.90;999.90;;;13.80;99.90;;;;;;5055939;28;20131;-79
2023/08/08 00:32:39;;;;;;;1999.90;999.90;;;13.80;99.90;;;;;;5056037;28;20048;-78
2023/08/08 00:35:05;;;;;;;1999.90;999.90;;;13.80;99.90;;;;;;5073417;28;20694;-79
2023/08/08 00:37:31;;;;;;;1999.90;999.90;;;13.80;99.90;;;;;;5055802;28;20133;-79
2023/08/08 00:39:56;;;;;;;1999.90;999.90;;;13.80;99.90;;;;;;5055909;28;20036;-79
2023/08/08 00:42:22;;;;;;;1999.90;999.90;;;13.80;99.90;;;;;;5074208;28;20044;-79
2023/08/08 00:44:48;;;;;;;1999.90;999.90;;;13.80;99.90;;;;;;5074258;28;20152;-78
2023/08/08 00:47:14;;;;;;;1999.90;999.90;;;13.80;99.90;;;;;;5073538;28;20054;-79
2023/08/08 00:49:40;;;;;;;1999.90;999.90;;;13.80;99.90;;;;;;5074295;28;20044;-79
2023/08/08 00:52:07;;;;;;;1999.90;999.90;;;13.80;99.90;;;;;;5055687;28;20476;-79
2023/08/08 00:54:33;;;;;;;1999.90;999.90;;;13.80;99.90;;;;;;5055492;28;20384;-79
2023/08/08 00:56:58;;;;;;;1999.90;999.90;;;13.80;99.90;;;;;;5073284;28;20052;-79
2023/08/08 00:59:24;;;;;;;1999.90;999.90;;;13.80;99.90;;;;;;5055974;28;20036;-81
2023/08/08 01:01:50;;;;;;;1999.90;999.90;;;13.80;99.90;;;;;;5055696;28;20114;-81
2023/08/08 01:04:16;;;;;;;1999.90;999.90;;;13.80;99.90;;;;;;5073597;28;20040;-80
2023/08/08 01:07:05;;;;;;;1999.90;999.90;;;13.80;99.90;;;;;;5055587;28;20087;-80
2023/08/08 01:09:55;;;;;;;1999.90;999.90;;;13.80;99.90;;;;;;5056394;28;20161;-79
2023/08/08 01:12:24;;;;;;;1999.90;999.90;;;13.80;99.90;;;;;;5072497;28;20396;-79
2023/08/08 01:14:50;;;;;;;1999.90;999.90;;;13.70;99.90;;;;;;5073314;28;20044;-80
2023/08/08 01:17:16;;;;;;;1999.90;999.90;;;13.70;99.90;;;;;;5077793;28;20036;-80
2023/08/08 01:19:42;;;;;;;1999.90;999.90;;;13.70;99.90;;;;;;5059693;28;20099;-81
2023/08/08 01:22:22;;;;;;;1999.90;999.90;;;13.60;99.90;;;;;;5076919;28;20558;-79
2023/08/08 01:24:48;;;;;;;1999.90;999.90;;;13.60;99.90;;;;;;5077195;28;20056;-79
2023/08/08 01:27:15;;;;;;;1999.90;999.90;;;13.60;99.90;;;;;;5077131;28;20045;-80
2023/08/08 01:29:42;;;;;;;1999.90;999.90;;;13.60;99.90;;;;;;5060082;28;20087;-80
2023/08/08 01:32:08;;;;;;;1999.90;999.90;;;13.60;99.90;;;;;;5059666;28;20053;-79
2023/08/08 01:34:35;;;;;;;1999.90;999.90;;;13.60;99.90;;;;;;5043640;28;20101;-80
2023/08/08 01:37:32;;;;;;;1999.90;999.90;;;13.50;99.90;;;;;;5059133;28;20060;-79
2023/08/08 01:40:00;;;;;;;1999.90;999.90;;;13.50;99.90;;;;;;5051827;28;20057;-80
2023/08/08 01:42:26;;;;;;;1999.90;999.90;;;13.50;99.90;;;;;;5076805;28;20102;-81
2023/08/08 01:44:54;;;;;;;1999.90;999.90;;;13.50;99.90;;;;;;5059493;28;20329;-81
2023/08/08 01:47:19;;;;;;;1999.90;999.90;;;13.40;99.90;;;;;;5076713;28;20051;-81
2023/08/08 01:49:45;;;;;;;1999.90;999.90;;;13.40;99.90;;;;;;5059155;28;20048;-80
2023/08/08 01:52:11;;;;;;;1999.90;999.90;;;13.40;99.90;;;;;;5076635;28;20049;-79
2023/08/08 01:54:36;;;;;;;1999.90;999.90;;;13.30;99.90;;;;;;5076574;28;20052;-80
2023/08/08 01:57:02;;;;;;;1999.90;999.90;;;13.40;99.90;;;;;;5076461;28;20059;-80
2023/08/08 01:59:28;;;;;;;1999.90;999.90;;;13.30;99.90;;;;;;5076578;28;20044;-80
2023/08/08 02:01:54;;;;;;;1999.90;999.90;;;13.40;99.90;;;;;;5076546;28;20067;-79
2023/08/08 02:04:20;;;;;;;1999.90;999.90;;;13.40;99.90;;;;;;5058479;28;20040;-80
2023/08/08 02:06:46;;;;;;;1999.90;999.90;;;13.40;99.90;;;;;;5059222;28;20052;-79
2023/08/08 02:09:14;;;;;;;1999.90;999.90;;;13.40;99.90;;;;;;5059493;28;20131;-80
2023/08/08 02:11:40;;;;;;;1999.90;999.90;;;13.40;99.90;;;;;;5042790;28;20472;-80
2023/08/08 02:14:05;;;;;;;1999.90;999.90;;;13.50;99.90;;;;;;5041874;28;20059;-79
2023/08/08 02:16:31;;;;;;;1999.90;999.90;;;13.50;99.90;;;;;;5076488;28;20430;-81
2023/08/08 02:18:57;;;;;;;1999.90;999.90;;;13.50;99.90;;;;;;5058304;28;20040;-80
2023/08/08 02:21:23;;;;;;;1999.90;999.90;;;13.50;99.90;;;;;;5058273;28;20092;-80
2023/08/08 02:23:48;;;;;;;1999.90;999.90;;;13.60;99.90;;;;;;5040310;28;20480;-80
2023/08/08 02:26:14;;;;;;;1999.90;999.90;;;13.60;99.90;;;;;;5074248;28;20084;-78
2023/08/08 02:28:41;;;;;;;1999.90;999.90;;;13.60;99.90;;;;;;5057181;28;20044;-80
2023/08/08 02:31:06;;;;;;;1999.90;999.90;;;13.60;99.90;;;;;;5056899;28;20384;-80
2023/08/08 02:33:32;;;;;;;1999.90;999.90;;;13.60;99.90;;;;;;5057973;28;20044;-80
2023/08/08 02:35:58;;;;;;;1999.90;999.90;;;13.70;99.90;;;;;;5075481;28;20044;-80
2023/08/08 02:38:23;;;;;;;1999.90;999.90;;;13.70;99.90;;;;;;5074635;28;20547;-80
2023/08/08 02:40:49;;;;;;;1999.90;999.90;;;13.70;99.90;;;;;;5074723;28;20062;-80
2023/08/08 02:43:16;;;;;;;1999.90;999.90;;;13.60;99.90;;;;;;5074597;28;20053;-80
2023/08/08 02:45:42;;;;;;;1999.90;999.90;;;13.60;99.90;;;;;;5056982;28;20049;-79
2023/08/08 02:48:07;;;;;;;1999.90;999.90;;;13.60;99.90;;;;;;5057723;28;20357;-79
2023/08/08 02:50:33;;;;;;;1999.90;999.90;;;13.60;99.90;;;;;;5056589;28;20085;-80
2023/08/08 02:52:59;;;;;;;1999.90;999.90;;;13.60;99.90;;;;;;5074417;28;20059;-80
2023/08/08 02:55:24;;;;;;;1999.90;999.90;;;13.60;99.90;;;;;;5057587;28;20106;-80
2023/08/08 02:57:50;;;;;;;1999.90;999.90;;;13.70;99.90;;;;;;5074390;28;20057;-81
2023/08/08 03:00:17;;;;;;;1999.90;999.90;;;13.60;99.90;;;;;;5040053;28;20450;-81
2023/08/08 03:02:42;;;;;;;1999.90;999.90;;;13.70;99.90;;;;;;5074797;28;20059;-81
2023/08/08 03:05:08;;;;;;;1999.90;999.90;;;13.70;99.90;;;;;;5040017;28;20044;-80
2023/08/08 03:07:34;;;;;;;1999.90;999.90;;;13.70;99.90;;;;;;5040009;28;20048;-81
2023/08/08 03:10:00;;;;;;;1999.90;999.90;;;13.70;99.90;;;;;;5057054;28;20048;-80
2023/08/08 03:12:26;;;;;;;1999.90;999.90;;;13.80;99.90;;;;;;5074292;28;20044;-80
2023/08/08 03:14:51;;;;;;;1999.90;999.90;;;13.80;99.90;;;;;;5056789;28;20094;-81
2023/08/08 03:17:17;;;;;;;1999.90;999.90;;;13.80;99.90;;;;;;5057067;28;20353;-80
2023/08/08 03:19:43;;;;;;;1999.90;999.90;;;13.80;99.90;;;;;;5057306;28;20070;-79
2023/08/08 03:22:09;;;;;;;1999.90;999.90;;;13.80;99.90;;;;;;5017370;28;1105342;-79
2023/08/08 03:24:35;;;;;;;1999.90;999.90;;;13.80;99.90;;;;;;5074901;28;20057;-80
2023/08/08 03:27:00;;;;;;;1999.90;999.90;;;13.90;99.90;;;;;;5056998;28;20152;-78
2023/08/08 03:29:26;;;;;;;1999.90;999.90;;;13.90;99.90;;;;;;5074719;28;20373;-77
2023/08/08 03:31:52;;;;;;;1999.90;999.90;;;13.90;99.90;;;;;;5056813;28;20079;-78
2023/08/08 03:34:17;;;;;;;1999.90;999.90;;;13.90;99.90;;;;;;5057871;28;20049;-79
2023/08/08 03:36:43;;;;;;;1999.90;999.90;;;13.90;99.90;;;;;;5074954;28;20044;-80
2023/08/08 03:39:09;;;;;;;1999.90;999.90;;;13.90;99.90;;;;;;5074343;28;20384;-79
2023/08/08 03:41:34;;;;;;;1999.90;999.90;;;14.00;99.90;;;;;;5056973;28;20072;-80
2023/08/08 03:44:02;;;;;;;1999.90;999.90;;;14.00;99.90;;;;;;5074526;28;20044;-79
2023/08/08 03:46:28;;;;;;;1999.90;999.90;;;14.00;99.90;;;;;;5074564;28;20056;-77
2023/08/08 03:48:54;;;;;;;1999.90;999.90;;;14.00;99.90;;;;;;5057096;28;20093;-80
2023/08/08 03:51:19;;;;;;;1999.90;999.90;;;14.00;99.90;;;;;;5074642;28;20106;-78
2023/08/08 03:53:45;;;;;;;1999.90;999.90;;;14.00;99.90;;;;;;5039875;28;20052;-84
2023/08/08 03:56:11;;;;;;;1999.90;999.90;;;13.90;99.90;;;;;;5074270;28;20131;-78
2023/08/08 03:58:38;;;;;;;1999.90;999.90;;;13.90;99.90;;;;;;5057158;28;20102;-79
2023/08/08 04:01:03;;;;;;;1999.90;999.90;;;13.90;99.90;;;;;;5056440;28;20064;-81
2023/08/08 04:03:29;;;;;;;1999.90;999.90;;;13.90;99.90;;;;;;5074704;28;20050;-79
2023/08/08 04:05:55;;;;;;;1999.90;999.90;;;13.90;99.90;;;;;;5040021;28;20052;-79
2023/08/08 04:08:20;;;;;;;1999.90;999.90;;;13.80;99.90;;;;;;5056266;28;20146;-80
2023/08/08 04:10:47;;;;;;;1999.90;999.90;;;13.80;99.90;;;;;;5074493;28;20044;-79
2023/08/08 04:13:12;;;;;;;1999.90;999.90;;;13.80;99.90;;;;;;5057056;28;20070;-81
2023/08/08 04:15:38;;;;;;;1999.90;999.90;;;13.80;99.90;;;;;;5073902;28;20128;-80
2023/08/08 04:18:06;;;;;;;1999.90;999.90;;;13.70;99.90;;;;;;5074539;28;20081;-79
2023/08/08 04:20:35;;;;;;;1999.90;999.90;;;13.60;99.90;;;;;;5073895;28;20091;-79
2023/08/08 04:23:01;;;;;;;1999.90;999.90;;;13.60;99.90;;;;;;5073738;28;20059;-79
2023/08/08 04:25:27;;;;;;;1999.90;999.90;;;13.60;99.90;;;;;;5039590;28;20059;-77
2023/08/08 04:27:53;;;;;;;1999.90;999.90;;;13.60;99.90;;;;;;5073794;28;20051;-79
2023/08/08 04:30:19;;;;;;;1999.90;999.90;;;13.60;99.90;;;;;;5073646;28;20123;-78
2023/08/08 04:32:45;;;;;;;1999.90;999.90;;;13.60;99.90;;;;;;5056075;28;20106;-78
2023/08/08 04:35:11;;;;;;;1999.90;999.90;;;13.60;99.90;;;;;;5056713;28;20445;-78
2023/08/08 04:37:37;;;;;;;1999.90;999.90;;;13.60;99.90;;;;;;5056702;28;20123;-79
2023/08/08 04:40:03;;;;;;;1999.90;999.90;;;13.60;99.90;;;;;;5056046;28;20056;-79
2023/08/08 04:42:29;;;;;;;1999.90;999.90;;;13.60;99.90;;;;;;5073596;28;20435;-79
2023/08/08 04:44:55;;;;;;;1999.90;999.90;;;13.60;99.90;;;;;;5073560;28;20131;-79
2023/08/08 04:47:21;;;;;;;1999.90;999.90;;;13.60;99.90;;;;;;5073528;28;20076;-78
2023/08/08 04:49:47;;;;;;;1999.90;999.90;;;13.60;99.90;;;;;;5056547;28;20384;-79
2023/08/08 04:52:12;;;;;;;1999.90;999.90;;;13.60;99.90;;;;;;5073856;28;20063;-80
2023/08/08 04:54:38;;;;;;;1999.90;999.90;;;13.70;99.90;;;;;;5022590;28;20052;-80
2023/08/08 04:57:04;;;;;;;1999.90;999.90;;;13.70;99.90;;;;;;5055551;28;20128;-79
2023/08/08 04:59:30;;;;;;;1999.90;999.90;;;13.70;99.90;;;;;;5073421;28;20079;-79
2023/08/08 05:01:55;;;;;;;1999.90;999.90;;;13.70;99.90;;;;;;5073236;28;20044;-79
2023/08/08 05:04:21;;;;;;;1999.90;999.90;;;13.70;99.90;;;;;;5074163;28;20052;-79
2023/08/08 05:06:47;;;;;;;1999.90;999.90;;;13.80;99.90;;;;;;5055950;28;20450;-80
2023/08/08 05:09:12;;;;;;;1999.90;999.90;;;13.80;99.90;;;;;;5055729;28;20044;-78
2023/08/08 05:11:38;;;;;;;1999.90;999.90;;;13.80;99.90;;;;;;5073261;28;20036;-80
2023/08/08 05:14:04;;;;;;;1999.90;999.90;;;13.80;99.90;;;;;;5073255;28;20043;-79
2023/08/08 05:16:29;;;;;;;1999.90;999.90;;;13.80;99.90;;;;;;5055363;28;20044;-80
2023/08/08 05:18:55;;;;;;;1999.90;999.90;;;13.80;99.90;;;;;;5073116;28;20041;-79
2023/08/08 05:21:21;;;;;;;1999.90;999.90;;;13.90;99.90;;;;;;5055455;28;20127;-80
2023/08/08 05:23:47;;;;;;;1999.90;999.90;;;13.90;99.90;;;;;;5073691;28;20056;-79
2023/08/08 05:26:14;;;;;;;1999.90;999.90;;;13.90;99.90;;;;;;5073092;28;20048;-79
2023/08/08 05:28:40;;;;;;;1999.90;999.90;;;14.00;99.90;;;;;;5073888;28;20036;-78
2023/08/08 05:31:06;;;;;;;1999.90;999.90;;;14.00;99.90;;;;;;5055867;28;20526;-78
2023/08/08 05:33:32;;;;;;;1999.90;999.90;;;14.10;99.90;;;;;;5056132;28;20048;-81
2023/08/08 05:35:57;;;;;;;1999.90;999.90;;;14.10;99.90;;;;;;5055353;28;20495;-80
2023/08/08 05:38:23;;;;;;;1999.90;999.90;;;14.20;99.90;;;;;;5055342;28;20040;-80
2023/08/08 05:40:49;;;;;;;1999.90;999.90;;;14.20;99.90;;;;;;5056131;28;20369;-80
2023/08/08 05:43:18;;;;;;;1999.90;999.90;;;14.20;99.90;;;;;;5072994;28;20135;-80
2023/08/08 05:45:44;;;;;;;1999.90;999.90;;;14.20;99.90;;;;;;5055583;28;20067;-79
2023/08/08 05:48:12;;;;;;;1999.90;999.90;;;14.30;99.90;;;;;;5072916;28;20040;-79
2023/08/08 05:50:41;;;;;;;1999.90;999.90;;;14.30;99.90;;;;;;5072863;28;20049;-79
2023/08/08 05:53:07;;;;;;;1999.90;999.90;;;14.40;99.90;;;;;;5055217;28;20487;-79
2023/08/08 05:55:33;;;;;;;1999.90;999.90;;;14.40;99.90;;;;;;5038650;28;20487;-81
2023/08/08 05:57:59;;;;;;;1999.90;999.90;;;14.40;99.90;;;;;;5055091;28;20080;-78
2023/08/08 06:00:24;;;;;;;1999.90;999.90;;;14.40;99.90;;;;;;5055139;28;20361;-81
2023/08/08 06:02:50;;;;;;;1999.90;999.90;;;14.50;99.90;;;;;;5075879;28;20075;-79
2023/08/08 06:05:17;;;;;;;1999.90;999.90;;;14.40;99.90;;;;;;5059084;28;20474;-78
2023/08/08 06:07:43;;;;;;;1999.90;999.90;;;14.50;99.90;;;;;;5076989;28;20048;-79
2023/08/08 06:10:09;;;;;;;1999.90;999.90;;;14.50;99.90;;;;;;5059551;28;20055;-80
2023/08/08 06:12:35;;;;;;;1999.90;999.90;;;14.50;99.90;;;;;;5058429;28;20056;-77
2023/08/08 06:15:01;;;;;;;1999.90;999.90;;;14.60;99.90;;;;;;5077006;28;20067;-77
2023/08/08 06:17:26;;;;;;;1999.90;999.90;;;14.60;99.90;;;;;;5058214;28;20037;-78
2023/08/08 06:19:54;;;;;;;1999.90;999.90;;;14.60;99.90;;;;;;5058315;28;20043;-79
2023/08/08 06:22:19;;;;;;;1999.90;999.90;;;14.60;99.90;;;;;;5056228;28;20057;-80
2023/08/08 06:24:45;;;;;;;1999.90;999.90;;;14.70;99.90;;;;;;5076046;28;20056;-78
2023/08/08 06:27:12;;;;;;;1999.90;999.90;;;14.70;99.90;;;;;;5076419;28;20051;-79
2023/08/08 06:29:38;;;;;;;1999.90;999.90;;;14.70;99.90;;;;;;5058214;28;20049;-80
2023/08/08 06:32:03;;;;;;;1999.90;999.90;;;14.70;99.90;;;;;;5076344;28;20369;-75
2023/08/08 06:34:29;;;;;;;1999.90;999.90;;;14.80;99.90;;;;;;5075867;28;20103;-78
2023/08/08 06:36:55;;;;;;;1999.90;999.90;;;14.80;99.90;;;;;;5076429;28;20049;-78
2023/08/08 06:39:21;;;;;;;1999.90;999.90;;;14.80;99.90;;;;;;5041234;28;20464;-77
2023/08/08 06:41:47;;;;;;;1999.90;999.90;;;14.90;99.90;;;;;;5075847;28;20424;-77
2023/08/08 06:44:13;;;;;;;1999.90;999.90;;;14.90;99.90;;;;;;5058814;28;20052;-78
2023/08/08 06:46:39;;;;;;;1999.90;999.90;;;14.90;99.90;;;;;;5075756;28;20468;-79
2023/08/08 06:49:06;;;;;;;1999.90;999.90;;;15.00;99.90;;;;;;5041384;28;20056;-80
2023/08/08 06:51:32;;;;;;;1999.90;999.90;;;15.10;99.90;;;;;;5075715;28;20049;-78
2023/08/08 06:53:58;;;;;;;1999.90;999.90;;;15.10;99.90;;;;;;5075609;28;20045;-80
2023/08/08 06:56:25;;;;;;;1999.90;999.90;;;15.20;99.90;;;;;;5057898;28;20045;-77
2023/08/08 06:58:52;;;;;;;1999.90;999.90;;;15.20;99.90;;;;;;5041492;28;20396;-80
2023/08/08 07:01:17;;;;;;;1999.90;999.90;;;15.30;99.90;;;;;;5075286;28;20044;-81
2023/08/08 07:03:43;;;;;;;1999.90;999.90;;;15.40;99.90;;;;;;5058707;28;20041;-79
2023/08/08 07:06:10;;;;;;;1999.90;999.90;;;15.40;99.90;;;;;;5057757;28;20040;-83
2023/08/08 07:08:39;;;;;;;1999.90;999.90;;;15.40;99.90;;;;;;5075339;28;20056;-82
2023/08/08 07:11:08;;;;;;;1999.90;999.90;;;15.50;99.90;;;;;;5075228;28;20048;-79
2023/08/08 07:13:34;;;;;;;1999.90;999.90;;;15.60;99.90;;;;;;5039938;28;20067;-79
2023/08/08 07:16:00;;;;;;;1999.90;999.90;;;15.60;99.90;;;;;;5075144;28;20461;-80
2023/08/08 07:18:26;;;;;;;1999.90;999.90;;;15.70;99.90;;;;;;5075030;28;20120;-81
2023/08/08 07:20:52;;;;;;;1999.90;999.90;;;15.70;99.90;;;;;;5058111;28;20465;-83
2023/08/08 07:23:18;;;;;;;1999.90;999.90;;;15.80;99.90;;;;;;5075524;28;20056;-80
2023/08/08 07:25:45;;;;;;;1999.90;999.90;;;15.90;99.90;;;;;;5074685;28;20058;-86
2023/08/08 07:28:11;;;;;;;1999.90;999.90;;;15.90;99.90;;;;;;5075182;28;20044;-80
2023/08/08 07:30:37;;;;;;;1999.90;999.90;;;16.00;99.90;;;;;;5057704;28;20052;-79
2023/08/08 07:33:02;;;;;;;1999.90;999.90;;;16.00;99.90;;;;;;5041132;28;20102;-81
2023/08/08 07:35:28;;;;;;;1999.90;999.90;;;16.00;99.90;;;;;;5057564;28;20475;-82
2023/08/08 07:37:54;;;;;;;1999.90;999.90;;;16.10;99.90;;;;;;5057638;28;20091;-86
2023/08/08 07:40:20;;;;;;;1999.90;999.90;;;16.10;99.90;;;;;;5040563;28;20048;-81
2023/08/08 07:42:47;;;;;;;1999.90;999.90;;;16.20;99.90;;;;;;5057047;28;20056;-80
2023/08/08 07:45:13;;;;;;;1999.90;999.90;;;16.20;99.90;;;;;;5056712;28;20044;-79
2023/08/08 07:47:39;;;;;;;1999.90;999.90;;;16.30;99.90;;;;;;5074382;28;20418;-82
2023/08/08 07:50:09;;;;;;;1999.90;999.90;;;16.30;99.90;;;;;;5040829;28;20049;-81
2023/08/08 07:52:35;;;;;;;1999.90;999.90;;;16.40;99.90;;;;;;5040657;28;20122;-80
2023/08/08 07:55:01;;;;;;;1999.90;999.90;;;16.40;99.90;;;;;;5040015;28;20124;-82
2023/08/08 07:57:28;;;;;;;1999.90;999.90;;;16.50;99.90;;;;;;5040054;28;20048;-79
2023/08/08 07:59:53;;;;;;;1999.90;999.90;;;16.60;99.90;;;;;;5056263;28;20036;-79
2023/08/08 08:02:19;;;;;;;1999.90;999.90;;;16.60;99.90;;;;;;5056317;28;20109;-84
2023/08/08 08:04:45;;;;;;;1999.90;999.90;;;16.70;99.90;;;;;;5074231;28;20048;-83
2023/08/08 08:07:10;;;;;;;1999.90;999.90;;;16.70;99.90;;;;;;5057070;28;20052;-81
2023/08/08 08:09:36;;;;;;;1999.90;999.90;;;16.80;99.90;;;;;;5057095;28;20067;-77
2023/08/08 08:12:02;;;;;;;1999.90;999.90;;;16.70;99.90;;;;;;5073746;28;20037;-79
2023/08/08 08:14:27;;;;;;;1999.90;999.90;;;16.70;99.90;;;;;;5039631;28;20201;-81
2023/08/08 08:16:53;;;;;;;1999.90;999.90;;;16.70;99.90;;;;;;5073859;28;20052;-83
2023/08/08 08:19:20;;;;;;;1999.90;999.90;;;16.70;99.90;;;;;;5055783;28;20392;-81
2023/08/08 08:21:48;;;;;;;1999.90;999.90;;;16.70;99.90;;;;;;5073644;28;20084;-81
2023/08/08 08:24:13;;;;;;;1999.90;999.90;;;16.70;99.90;;;;;;5037163;28;20103;-81
2023/08/08 08:26:39;;;;;;;1999.90;999.90;;;16.80;99.90;;;;;;5055835;28;20084;-78
2023/08/08 08:29:05;;;;;;;1999.90;999.90;;;16.80;99.90;;;;;;5074164;28;20041;-80
2023/08/08 08:31:30;;;;;;;1999.90;999.90;;;16.80;99.90;;;;;;5073323;28;20364;-78
2023/08/08 08:33:56;;;;;;;1999.90;999.90;;;16.80;99.90;;;;;;5055999;28;20048;-78
2023/08/08 08:36:22;;;;;;;1999.90;999.90;;;16.80;99.90;;;;;;5073065;28;20080;-78
2023/08/08 08:38:47;;;;;;;1999.90;999.90;;;16.80;99.90;;;;;;5055447;28;20052;-80
2023/08/08 08:41:17;;;;;;;1999.90;999.90;;;16.90;99.90;;;;;;5055644;28;20052;-82
2023/08/08 08:43:43;;;;;;;1999.90;999.90;;;16.90;99.90;;;;;;5055912;28;20487;-84
2023/08/08 08:46:11;;;;;;;1999.90;999.90;;;16.90;99.90;;;;;;5055517;28;20048;-80
2023/08/08 08:48:37;;;;;;;1999.90;999.90;;;16.90;99.90;;;;;;5039011;28;20048;-80
2023/08/08 08:51:03;;;;;;;1999.90;999.90;;;17.00;99.90;;;;;;5038945;28;20044;-77
2023/08/08 08:53:29;;;;;;;1999.90;999.90;;;17.10;99.90;;;;;;5039061;28;20036;-81
2023/08/08 08:55:57;;;;;;;1999.90;999.90;;;17.10;99.90;;;;;;5055385;28;20079;-84
2023/08/08 08:58:24;;;;;;;1999.90;999.90;;;17.10;99.90;;;;;;5056107;28;20349;-82
2023/08/08 09:00:51;;;;;;;1999.90;999.90;;;17.10;99.90;;;;;;5055657;28;20048;-83
2023/08/08 09:03:19;;;;;;;1999.90;999.90;;;17.10;99.90;;;;;;5073155;28;20048;-78
2023/08/08 09:05:45;;;;;;;1999.90;999.90;;;17.10;99.90;;;;;;5056119;28;20056;-83
2023/08/08 09:08:12;;;;;;;1999.90;999.90;;;17.10;99.90;;;;;;5073593;28;20053;-79
2023/08/08 09:10:38;;;;;;;1999.90;999.90;;;17.10;99.90;;;;;;5055982;28;20127;-78
2023/08/08 09:13:04;;;;;;;1999.90;999.90;;;17.00;99.90;;;;;;5073020;28;20047;-82
2023/08/08 09:15:34;;;;;;;1999.90;999.90;;;17.00;99.90;;;;;;5073115;28;20132;-80
2023/08/08 09:18:00;;;;;;;1999.90;999.90;;;17.00;99.90;;;;;;5072977;28;20045;-83
2023/08/08 09:20:28;;;;;;;1999.90;999.90;;;17.00;99.90;;;;;;5055601;28;20051;-82
2023/08/08 09:22:54;;;;;;;1999.90;999.90;;;17.00;99.90;;;;;;5072970;28;20414;-81
2023/08/08 09:25:20;;;;;;;1999.90;999.90;;;17.10;99.90;;;;;;5054928;28;20510;-82
2023/08/08 09:27:47;;;;;;;1999.90;999.90;;;17.20;99.90;;;;;;5072943;28;20052;-75
2023/08/08 09:30:13;;;;;;;1999.90;999.90;;;17.40;99.90;;;;;;5073481;28;20052;-81
2023/08/08 09:32:38;;;;;;;1999.90;999.90;;;17.50;99.90;;;;;;5073204;28;20521;-83
2023/08/08 09:35:07;;;;;;;1999.90;999.90;;;17.50;99.90;;;;;;5055724;28;20079;-80
2023/08/08 09:37:33;;;;;;;1999.90;999.90;;;17.60;99.90;;;;;;5075649;28;20044;-84
2023/08/08 09:40:03;;;;;;;1999.90;999.90;;;17.60;99.90;;;;;;5058983;28;20102;-82
2023/08/08 09:42:29;;;;;;;1999.90;999.90;;;17.60;99.90;;;;;;5077543;28;20355;-84
2023/08/08 09:44:59;;;;;;;1999.90;999.90;;;17.60;99.90;;;;;;5059025;28;20095;-80
2023/08/08 09:47:32;;;;;;;1999.90;999.90;;;17.60;99.90;;;;;;5076642;28;20044;-75
2023/08/08 09:50:04;;;;;;;1999.90;999.90;;;17.50;99.90;;;;;;5077093;28;20048;-76
2023/08/08 09:52:30;;;;;;;1999.90;999.90;;;17.50;99.90;;;;;;5076891;28;20044;-76
2023/08/08 09:54:56;;;;;;;1999.90;999.90;;;17.40;99.90;;;;;;5076397;28;20040;-76
2023/08/08 09:57:23;;;;;;;1999.90;999.90;;;17.50;99.90;;;;;;5076281;28;20044;-75
2023/08/08 09:59:51;;;;;;;1999.90;999.90;;;17.60;99.90;;;;;;5076913;28;20123;-76
2023/08/08 10:02:17;;;;;;;1999.90;999.90;;;17.60;99.90;;;;;;5059174;28;20132;-72
2023/08/08 10:04:45;;;;;;;1999.90;999.90;;;17.70;99.90;;;;;;5076270;28;20044;-80
2023/08/08 10:07:11;;;;;;;1999.90;999.90;;;17.70;99.90;;;;;;5075931;28;20430;-78
2023/08/08 10:09:40;;;;;;;1999.90;999.90;;;17.70;99.90;;;;;;5076158;28;20052;-79
2023/08/08 10:12:07;;;;;;;1999.90;999.90;;;17.70;99.90;;;;;;5059223;28;20388;-79
2023/08/08 10:14:36;;;;;;;1999.90;999.90;;;17.70;99.90;;;;;;5041483;28;20045;-79
2023/08/08 10:17:06;;;;;;;1999.90;999.90;;;17.70;99.90;;;;;;5059214;28;20048;-78
2023/08/08 10:19:32;;;;;;;1999.90;999.90;;;17.70;99.90;;;;;;5058054;28;20087;-78
2023/08/08 10:22:05;;;;;;;1999.90;999.90;;;17.60;99.90;;;;;;5076535;28;20455;-76
2023/08/08 10:24:38;;;;;;;1999.90;999.90;;;17.60;99.90;;;;;;5075986;28;20065;-81
2023/08/08 10:27:04;;;;;;;1999.90;999.90;;;17.50;99.90;;;;;;5076605;28;20435;-72
2023/08/08 10:29:32;;;;;;;1999.90;999.90;;;17.30;99.90;;;;;;5076404;28;20044;-81
2023/08/08 10:32:01;;;;;;;1999.90;999.90;;;17.10;99.90;;;;;;5075720;28;20044;-80
2023/08/08 10:34:46;;;;;;;1999.90;999.90;;;16.90;99.90;;;;;;5058338;28;20059;-75
2023/08/08 10:37:13;;;;;;;1999.90;999.90;;;16.60;99.90;;;;;;5075684;28;20404;-71
2023/08/08 10:39:52;;;;;;;1999.90;999.90;;;16.40;99.90;;;;;;5076174;28;20051;-75
2023/08/08 10:42:19;;;;;;;1999.90;999.90;;;16.20;99.90;;;;;;5075948;28;20049;-75
2023/08/08 10:44:58;;;;;;;1999.90;999.90;;;16.00;99.90;;;;;;5075571;28;20442;-69
2023/08/08 10:47:32;;;;;;;1999.90;999.90;;;15.90;99.90;;;;;;5075249;28;20045;-78
2023/08/08 10:50:21;;;;;;;1999.90;999.90;;;15.80;99.90;;;;;;5075497;28;20044;-80
2023/08/08 10:52:52;;;;;;;1999.90;999.90;;;15.70;99.90;;;;;;5075926;28;20040;-82
2023/08/08 10:55:56;;;;;;;1999.90;999.90;;;15.70;99.90;;;;;;5057669;28;20049;-81
2023/08/08 10:58:21;;;;;;;1999.90;999.90;;;15.80;99.90;;;;;;5059561;28;20056;-79
2023/08/08 11:00:48;;;;;;;1999.90;999.90;;;16.00;99.90;;;;;;5075325;28;20045;-81
2023/08/08 11:03:14;;;;;;;1999.90;999.90;;;16.10;99.90;;;;;;5075318;28;20052;-81
2023/08/08 11:05:44;;;;;;;1999.90;999.90;;;16.20;99.90;;;;;;5057460;28;20394;-80
2023/08/08 11:08:10;;;;;;;1999.90;999.90;;;16.20;99.90;;;;;;5057431;28;20531;-83
2023/08/08 11:10:37;;;;;;;1999.90;999.90;;;16.30;99.90;;;;;;5040865;28;20123;-79
2023/08/08 11:13:05;;;;;;;1999.90;999.90;;;16.20;99.90;;;;;;5057398;28;20048;-82
2023/08/08 11:15:35;;;;;;;1999.90;999.90;;;16.30;99.90;;;;;;5075070;28;20041;-85
2023/08/08 11:18:02;;;;;;;1999.90;999.90;;;16.40;99.90;;;;;;5074823;28;20066;-82
2023/08/08 11:20:32;;;;;;;1999.90;999.90;;;16.50;99.90;;;;;;5074903;28;20044;-80
2023/08/08 11:22:59;;;;;;;1999.90;999.90;;;16.50;99.90;;;;;;5057602;28;20119;-80
2023/08/08 11:25:29;;;;;;;1999.90;999.90;;;16.60;99.90;;;;;;5074840;28;20045;-83
2023/08/08 11:27:56;;;;;;;1999.90;999.90;;;16.70;99.90;;;;;;5075057;28;20075;-77
2023/08/08 11:30:27;;;;;;;1999.90;999.90;;;16.90;99.90;;;;;;5056999;28;20068;-75
2023/08/08 11:32:53;;;;;;;1999.90;999.90;;;17.00;99.90;;;;;;5057057;28;20088;-79
2023/08/08 11:35:23;;;;;;;1999.90;999.90;;;17.10;99.90;;;;;;5075395;28;20037;-79
2023/08/08 11:37:51;;;;;;;1999.90;999.90;;;17.20;99.90;;;;;;5074478;28;20048;-81
2023/08/08 11:40:17;;;;;;;1999.90;999.90;;;17.30;99.90;;;;;;5074381;28;20048;-74
2023/08/08 11:42:45;;;;;;;1999.90;999.90;;;17.40;99.90;;;;;;5074483;28;20083;-85
2023/08/08 11:45:12;;;;;;;1999.90;999.90;;;17.50;99.90;;;;;;5057533;28;20055;-84
2023/08/08 11:47:39;;;;;;;1999.90;999.90;;;17.60;99.90;;;;;;5056534;28;20126;-77
2023/08/08 11:50:07;;;;;;;1999.90;999.90;;;17.70;99.90;;;;;;5056783;28;20056;-83
2023/08/08 11:52:39;;;;;;;1999.90;999.90;;;17.90;99.90;;;;;;5074849;28;20055;-72
2023/08/08 11:55:06;;;;;;;1999.90;999.90;;;18.00;99.90;;;;;;5057454;28;20083;-75
2023/08/08 11:57:33;;;;;;;1999.90;999.90;;;18.00;99.90;;;;;;5074068;28;20053;-73